createdAt,value
2019-04-22T00:00:33.988Z,78.69
2019-04-22T00:01:31.259Z,79.30
2019-04-22T00:03:23.697Z,78.69
2019-04-22T00:04:32.381Z,79.46
2019-04-22T00:06:42.749Z,79.74
2019-04-22T00:07:36.229Z,80.12
2019-04-22T00:09:31.063Z,78.88
2019-04-22T00:10:34.167Z,79.46
2019-04-22T00:12:30.714Z,79.74
2019-04-22T00:13:25.994Z,79.83
2019-04-22T00:15:10.187Z,79.36
2019-04-22T00:16:19.254Z,79.36
2019-04-22T00:18:13.323Z,80.41
2019-04-22T00:19:15.129Z,80.31
2019-04-22T00:21:09.263Z,80.79
2019-04-22T00:22:09.254Z,80.98
2019-04-22T00:23:53.005Z,81.84
2019-04-22T00:25:00.083Z,81.36
2019-04-22T00:26:50.240Z,80.98
2019-04-22T00:27:50.909Z,81.26
2019-04-22T00:30:34.323Z,81.36
2019-04-22T00:32:30.560Z,82.03
2019-04-22T00:33:32.314Z,82.03
2019-04-22T00:35:27.261Z,83.65
2019-04-22T00:36:21.676Z,84.88
2019-04-22T00:39:21.284Z,84.60
2019-04-22T00:41:13.175Z,85.32
2019-04-22T00:42:13.034Z,85.80
2019-04-22T00:44:02.916Z,84.65
2019-04-22T00:45:09.447Z,84.94
2019-04-22T00:47:00.683Z,84.27
2019-04-22T00:47:50.656Z,84.56
2019-04-22T00:50:55.494Z,83.70
2019-04-22T00:52:41.705Z,82.93
2019-04-22T00:53:39.203Z,82.93
2019-04-22T00:55:32.961Z,82.46
2019-04-22T00:56:32.843Z,82.65
2019-04-22T00:58:24.108Z,83.65
2019-04-22T00:59:23.321Z,85.66
2019-04-22T01:01:20.296Z,84.17
2019-04-22T01:02:22.891Z,83.47
2019-04-22T01:05:15.157Z,85.70
2019-04-22T01:07:06.291Z,84.80
2019-04-22T01:08:06.853Z,84.23
2019-04-22T01:10:03.936Z,84.13
2019-04-22T01:11:04.753Z,83.37
2019-04-22T01:12:51.128Z,84.42
2019-04-22T01:13:53.377Z,84.33
2019-04-22T01:15:45.302Z,83.65
2019-04-22T01:16:42.918Z,84.52
2019-04-22T01:18:38.157Z,85.37
2019-04-22T01:19:39.232Z,85.75
2019-04-22T01:21:36.578Z,85.85
2019-04-22T01:22:27.113Z,86.61
2019-04-22T01:24:17.529Z,87.08
2019-04-22T01:27:03.681Z,88.32
2019-04-22T01:28:02.438Z,88.79
2019-04-22T01:29:55.566Z,85.08
2019-04-22T01:30:51.471Z,84.80
2019-04-22T01:32:41.266Z,85.33
2019-04-22T01:33:40.771Z,86.70
2019-04-22T01:35:39.966Z,87.56
2019-04-22T01:36:51.592Z,87.46
2019-04-22T01:38:45.381Z,86.51
2019-04-22T01:39:43.595Z,85.56
2019-04-22T01:41:42.023Z,84.99
2019-04-22T01:42:42.804Z,85.75
2019-04-22T01:44:33.401Z,84.80
2019-04-22T01:45:31.351Z,84.80
2019-04-22T01:47:25.750Z,85.47
2019-04-22T01:48:27.001Z,86.51
2019-04-22T01:50:21.434Z,86.80
2019-04-22T01:51:26.787Z,87.56
2019-04-22T01:54:15.108Z,87.42
2019-04-22T01:56:38.275Z,88.60
2019-04-22T01:57:28.444Z,88.99
2019-04-22T01:59:15.446Z,88.79
2019-04-22T02:00:18.986Z,88.23
2019-04-22T02:02:19.066Z,87.80
2019-04-22T02:03:17.232Z,87.90
2019-04-22T02:05:15.747Z,87.90
2019-04-22T02:08:09.674Z,89.14
2019-04-22T02:09:09.433Z,88.75
2019-04-22T02:10:54.802Z,89.32
2019-04-22T02:13:49.803Z,91.22
2019-04-22T02:14:44.252Z,91.61
2019-04-22T02:16:45.724Z,89.80
2019-04-22T02:22:45.263Z,89.32
2019-04-22T02:25:23.741Z,92.08
2019-04-22T02:26:35.544Z,91.13
2019-04-22T02:28:16.743Z,89.89
2019-04-22T02:29:15.035Z,90.37
2019-04-22T02:32:19.501Z,90.75
2019-04-22T02:35:03.578Z,90.56
2019-04-22T02:36:54.756Z,91.22
2019-04-22T02:37:54.373Z,90.94
2019-04-22T02:39:48.742Z,91.32
2019-04-22T02:41:13.252Z,91.51
2019-04-22T02:42:32.386Z,90.75
2019-04-22T02:43:51.785Z,90.33
2019-04-22T02:45:37.833Z,89.89
2019-04-22T02:49:25.461Z,91.32
2019-04-22T02:51:27.711Z,91.08
2019-04-22T02:52:26.338Z,91.08
2019-04-22T02:55:11.128Z,92.51
2019-04-22T02:57:04.531Z,91.47
2019-04-22T02:58:03.792Z,90.80
2019-04-22T03:00:07.415Z,91.47
2019-04-22T03:03:04.163Z,90.75
2019-04-22T03:04:01.577Z,91.13
2019-04-22T03:05:45.588Z,91.80
2019-04-22T03:09:36.069Z,91.80
2019-04-22T03:11:26.924Z,93.32
2019-04-22T03:12:26.937Z,94.08
2019-04-22T03:14:22.396Z,94.84
2019-04-22T03:15:12.004Z,94.79
2019-04-22T03:17:16.274Z,94.60
2019-04-22T03:18:27.124Z,95.08
2019-04-22T03:20:06.256Z,93.55
2019-04-22T03:21:06.944Z,92.99
2019-04-22T03:23:05.732Z,94.22
2019-04-22T03:26:51.911Z,92.75
2019-04-22T03:28:51.834Z,91.89
2019-04-22T03:29:58.357Z,93.04
2019-04-22T03:32:12.870Z,92.37
2019-04-22T03:38:25.454Z,94.08
2019-04-22T03:44:18.642Z,94.56
2019-04-22T03:45:51.422Z,95.03
2019-04-22T03:49:02.291Z,93.37
2019-04-22T03:52:03.148Z,94.23
2019-04-22T03:52:50.182Z,94.18
2019-04-22T03:55:38.434Z,92.90
2019-04-22T03:58:28.338Z,95.08
2019-04-22T04:01:36.928Z,93.99
2019-04-22T04:04:24.288Z,92.27
2019-04-22T04:06:06.653Z,91.89
2019-04-22T04:07:22.501Z,90.47
2019-04-22T04:10:10.252Z,91.52
2019-04-22T04:11:59.897Z,90.52
2019-04-22T04:13:00.053Z,90.14
2019-04-22T04:14:53.607Z,89.56
2019-04-22T04:15:55.664Z,88.71
2019-04-22T04:17:49.819Z,88.90
2019-04-22T04:18:46.978Z,89.00
2019-04-22T04:21:37.131Z,88.33
2019-04-22T04:23:28.854Z,89.00
2019-04-22T04:26:31.138Z,87.57
2019-04-22T04:27:36.252Z,87.28
2019-04-22T04:29:32.812Z,86.52
2019-04-22T04:30:18.932Z,86.24
2019-04-22T04:32:22.888Z,85.66
2019-04-22T04:33:06.899Z,85.57
2019-04-22T04:36:01.123Z,85.61
2019-04-22T04:40:41.746Z,83.81
2019-04-22T04:43:59.700Z,85.33
2019-04-22T04:44:48.748Z,85.14
2019-04-22T04:46:36.206Z,85.24
2019-04-22T04:52:27.578Z,85.61
2019-04-22T04:55:17.675Z,86.28
2019-04-22T04:56:11.941Z,86.38
2019-04-22T04:59:05.535Z,85.61
2019-04-22T05:03:49.686Z,85.57
2019-04-22T05:04:56.217Z,86.47
2019-04-22T05:09:40.815Z,85.24
2019-04-22T05:10:47.874Z,85.71
2019-04-22T05:12:42.303Z,84.66
2019-04-22T05:13:22.940Z,85.80
2019-04-22T05:18:06.547Z,84.56
2019-04-22T05:19:09.745Z,83.90
2019-04-22T05:21:12.354Z,83.37
2019-04-22T05:21:58.147Z,82.99
2019-04-22T05:24:51.852Z,82.61
2019-04-22T05:26:39.766Z,82.23
2019-04-22T05:27:39.694Z,81.95
2019-04-22T05:29:43.984Z,80.84
2019-04-22T05:30:32.644Z,80.42
2019-04-22T05:32:28.770Z,81.13
2019-04-22T05:33:26.287Z,79.80
2019-04-22T05:35:23.016Z,78.65
2019-04-22T05:36:24.950Z,78.37
2019-04-22T05:38:11.615Z,77.64
2019-04-22T05:39:11.173Z,77.45
2019-04-22T05:41:02.643Z,77.07
2019-04-22T05:42:07.547Z,77.17
2019-04-22T05:43:58.227Z,76.06
2019-04-22T05:45:00.245Z,75.87
2019-04-22T05:46:49.624Z,75.34
2019-04-22T05:47:51.822Z,73.75
2019-04-22T05:49:34.832Z,70.45
2019-04-22T05:50:37.357Z,70.01
2019-04-22T05:52:31.694Z,67.21
2019-04-22T05:53:32.401Z,65.45
2019-04-22T05:55:30.588Z,62.52
2019-04-22T05:56:33.844Z,61.40
2019-04-22T05:58:15.350Z,62.11
2019-04-22T05:59:22.779Z,63.45
2019-04-22T06:02:25.294Z,62.55
2019-04-22T06:04:07.991Z,64.53
2019-04-22T06:05:08.202Z,65.11
2019-04-22T06:06:53.847Z,64.91
2019-04-22T06:07:52.713Z,65.48
2019-04-22T06:09:49.625Z,66.73
2019-04-22T06:10:53.368Z,66.09
2019-04-22T06:12:35.359Z,63.67
2019-04-22T06:13:31.959Z,61.91
2019-04-22T06:15:36.249Z,58.58
2019-04-22T06:16:42.316Z,56.15
2019-04-22T06:18:27.060Z,56.46
2019-04-22T06:19:27.901Z,56.41
2019-04-22T06:21:24.444Z,58.14
2019-04-22T06:22:34.292Z,56.68
2019-04-22T06:24:18.744Z,55.12
2019-04-22T06:25:23.046Z,55.34
2019-04-22T06:28:19.749Z,52.12
2019-04-22T06:29:56.555Z,51.96
2019-04-22T06:31:02.613Z,51.84
2019-04-22T06:32:53.811Z,52.68
2019-04-22T06:33:54.714Z,52.97
2019-04-22T06:39:39.694Z,50.83
2019-04-22T06:41:31.598Z,49.82
2019-04-22T06:42:44.097Z,48.93
2019-04-22T06:44:24.252Z,51.35
2019-04-22T06:45:24.541Z,51.84
2019-04-22T06:47:27.361Z,52.80
2019-04-22T06:48:19.295Z,52.51
2019-04-22T06:50:07.539Z,52.55
2019-04-22T06:51:06.352Z,53.01
2019-04-22T06:53:02.587Z,52.87
2019-04-22T06:54:01.804Z,52.68
2019-04-22T06:55:51.458Z,52.24
2019-04-22T06:56:58.169Z,53.03
2019-04-22T06:58:50.040Z,52.44
2019-04-22T07:01:59.326Z,48.86
2019-04-22T07:04:31.760Z,49.99
2019-04-22T07:05:36.689Z,51.67
2019-04-22T07:07:24.070Z,54.25
2019-04-22T07:10:28.652Z,51.96
2019-04-22T07:11:14.188Z,51.04
2019-04-22T07:13:10.742Z,53.74
2019-04-22T07:14:04.178Z,53.32
2019-04-22T07:16:20.307Z,54.71
2019-04-22T07:17:05.165Z,54.68
2019-04-22T07:18:54.717Z,55.19
2019-04-22T07:19:48.733Z,54.60
2019-04-22T07:22:45.179Z,50.32
2019-04-22T07:25:41.372Z,47.77
2019-04-22T07:27:38.376Z,50.42
2019-04-22T07:28:49.117Z,50.10
2019-04-22T07:30:26.173Z,52.22
2019-04-22T07:31:43.127Z,51.76
2019-04-22T07:33:22.545Z,49.91
2019-04-22T07:34:33.298Z,48.42
2019-04-22T07:36:30.535Z,48.06
2019-04-22T07:37:23.102Z,49.27
2019-04-22T07:39:05.623Z,52.48
2019-04-22T07:40:02.584Z,52.42
2019-04-22T07:41:55.971Z,51.93
2019-04-22T07:42:57.740Z,51.93
2019-04-22T07:44:53.244Z,50.82
2019-04-22T07:45:49.369Z,52.89
2019-04-22T07:47:44.392Z,55.64
2019-04-22T07:48:49.900Z,55.19
2019-04-22T07:50:49.397Z,55.00
2019-04-22T07:53:32.177Z,52.58
2019-04-22T07:54:25.942Z,52.58
2019-04-22T07:56:18.849Z,52.68
2019-04-22T07:59:15.284Z,51.50
2019-04-22T08:00:16.210Z,51.34
2019-04-22T08:02:03.239Z,50.40
2019-04-22T08:03:10.663Z,51.07
2019-04-22T08:05:05.679Z,51.02
2019-04-22T08:06:08.716Z,51.84
2019-04-22T08:07:52.433Z,51.14
2019-04-22T08:08:58.406Z,51.14
2019-04-22T08:11:51.548Z,51.07
2019-04-22T08:13:36.529Z,50.59
2019-04-22T08:14:40.931Z,50.23
2019-04-22T08:16:33.883Z,49.94
2019-04-22T08:17:53.399Z,49.36
2019-04-22T08:19:33.207Z,48.71
2019-04-22T08:20:25.229Z,49.07
2019-04-22T08:22:14.308Z,49.69
2019-04-22T08:23:20.498Z,50.15
2019-04-22T08:25:06.878Z,51.31
2019-04-22T08:26:05.524Z,50.37
2019-04-22T08:28:05.632Z,48.33
2019-04-22T08:29:11.545Z,46.78
2019-04-22T08:30:53.695Z,46.26
2019-04-22T08:31:56.527Z,46.93
2019-04-22T08:33:46.503Z,46.81
2019-04-22T08:34:42.667Z,46.16
2019-04-22T08:39:34.495Z,46.31
2019-04-22T08:40:37.021Z,46.69
2019-04-22T08:42:34.828Z,47.72
2019-04-22T08:43:26.748Z,48.66
2019-04-22T08:45:18.852Z,48.21
2019-04-22T08:46:23.508Z,48.07
2019-04-22T08:48:07.739Z,47.77
2019-04-22T08:49:05.882Z,46.93
2019-04-22T08:51:00.774Z,45.48
2019-04-22T08:52:01.451Z,44.54
2019-04-22T08:55:01.362Z,44.11
2019-04-22T08:56:46.059Z,42.70
2019-04-22T08:58:09.875Z,43.04
2019-04-22T08:59:46.647Z,43.11
2019-04-22T09:00:43.918Z,42.55
2019-04-22T09:03:31.738Z,42.09
2019-04-22T09:05:47.086Z,42.13
2019-04-22T09:08:20.002Z,42.19
2019-04-22T09:09:23.262Z,42.52
2019-04-22T09:11:18.166Z,41.75
2019-04-22T09:12:15.915Z,41.67
2019-04-22T09:15:01.153Z,41.53
2019-04-22T09:17:02.253Z,43.05
2019-04-22T09:18:03.046Z,42.88
2019-04-22T09:19:48.110Z,43.41
2019-04-22T09:21:01.109Z,42.61
2019-04-22T09:22:41.065Z,42.35
2019-04-22T09:23:44.389Z,42.21
2019-04-22T09:25:34.336Z,43.41
2019-04-22T09:26:36.846Z,44.02
2019-04-22T09:28:34.505Z,44.45
2019-04-22T09:29:34.203Z,43.89
2019-04-22T09:31:19.632Z,42.87
2019-04-22T09:32:31.763Z,41.78
2019-04-22T09:34:14.050Z,42.73
2019-04-22T09:35:10.255Z,42.93
2019-04-22T09:37:14.436Z,43.06
2019-04-22T09:38:20.484Z,42.35
2019-04-22T09:40:08.737Z,43.33
2019-04-22T09:41:02.025Z,43.65
2019-04-22T09:42:57.793Z,45.42
2019-04-22T09:43:53.377Z,45.51
2019-04-22T09:45:43.322Z,46.77
2019-04-22T09:46:47.131Z,46.74
2019-04-22T09:49:46.861Z,46.81
2019-04-22T09:51:31.157Z,45.65
2019-04-22T09:52:30.831Z,44.60
2019-04-22T09:54:29.624Z,44.80
2019-04-22T09:55:21.690Z,44.32
2019-04-22T09:57:15.315Z,44.26
2019-04-22T09:58:21.265Z,43.63
2019-04-22T10:00:10.247Z,42.20
2019-04-22T10:01:18.833Z,42.12
2019-04-22T10:03:11.544Z,45.26
2019-04-22T10:04:00.852Z,45.26
2019-04-22T10:06:06.606Z,45.50
2019-04-22T10:06:45.666Z,44.20
2019-04-22T10:09:02.254Z,43.72
2019-04-22T10:11:37.750Z,42.16
2019-04-22T10:14:30.900Z,43.84
2019-04-22T10:15:33.779Z,43.68
2019-04-22T10:17:29.530Z,43.08
2019-04-22T10:18:27.425Z,43.54
2019-04-22T10:20:22.366Z,43.87
2019-04-22T10:21:27.316Z,45.36
2019-04-22T10:23:17.021Z,46.55
2019-04-22T10:24:09.195Z,46.56
2019-04-22T10:26:05.283Z,45.67
2019-04-22T10:27:04.516Z,45.21
2019-04-22T10:31:52.760Z,46.06
2019-04-22T10:32:50.863Z,45.59
2019-04-22T10:34:26.925Z,45.28
2019-04-22T10:35:19.921Z,44.57
2019-04-22T10:37:11.813Z,45.31
2019-04-22T10:38:10.396Z,44.82
2019-04-22T10:40:05.742Z,45.69
2019-04-22T10:41:02.722Z,45.50
2019-04-22T10:42:54.815Z,45.82
2019-04-22T10:43:55.075Z,46.90
2019-04-22T10:45:48.107Z,46.83
2019-04-22T10:46:48.507Z,46.71
2019-04-22T10:48:40.321Z,48.11
2019-04-22T10:49:40.408Z,47.72
2019-04-22T10:51:33.048Z,49.05
2019-04-22T10:52:32.999Z,50.78
2019-04-22T10:54:25.773Z,50.32
2019-04-22T10:55:25.695Z,49.63
2019-04-22T10:57:19.971Z,51.07
2019-04-22T10:58:18.463Z,50.66
2019-04-22T11:00:11.464Z,52.25
2019-04-22T11:01:11.550Z,52.63
2019-04-22T11:03:04.274Z,53.25
2019-04-22T11:04:03.942Z,53.61
2019-04-22T11:05:57.060Z,55.53
2019-04-22T11:07:03.005Z,55.53
2019-04-22T11:08:55.865Z,54.77
2019-04-22T11:09:59.232Z,55.34
2019-04-22T11:11:51.133Z,55.44
2019-04-22T11:12:43.282Z,55.34
2019-04-22T11:14:34.882Z,56.21
2019-04-22T11:15:34.892Z,56.21
2019-04-22T11:17:27.571Z,56.98
2019-04-22T11:18:27.518Z,57.45
2019-04-22T11:20:21.656Z,56.88
2019-04-22T11:21:20.250Z,57.00
2019-04-22T11:23:14.277Z,56.30
2019-04-22T11:24:13.014Z,55.63
2019-04-22T11:26:05.994Z,56.21
2019-04-22T11:27:07.009Z,56.59
2019-04-22T11:28:59.367Z,57.23
2019-04-22T11:29:59.464Z,57.93
2019-04-22T11:31:52.430Z,58.32
2019-04-22T11:32:51.103Z,58.64
2019-04-22T11:34:44.932Z,57.58
2019-04-22T11:35:43.910Z,57.48
2019-04-22T11:37:36.832Z,56.59
2019-04-22T11:38:37.718Z,57.07
2019-04-22T11:40:34.789Z,57.26
2019-04-22T11:41:29.384Z,57.65
2019-04-22T11:43:22.119Z,58.80
2019-04-22T11:44:23.466Z,57.75
2019-04-22T11:46:15.654Z,58.54
2019-04-22T11:47:15.158Z,57.68
2019-04-22T11:49:07.989Z,57.87
2019-04-22T11:50:08.074Z,57.58
2019-04-22T11:52:01.024Z,57.20
2019-04-22T11:53:00.790Z,57.26
2019-04-22T11:54:52.973Z,58.42
2019-04-22T11:55:53.228Z,58.29
2019-04-22T11:57:45.642Z,58.87
2019-04-22T11:58:46.969Z,58.39
2019-04-22T12:00:38.936Z,59.06
2019-04-22T12:01:39.013Z,58.87
2019-04-22T12:03:31.626Z,59.25
2019-04-22T12:04:32.110Z,58.77
2019-04-22T12:06:24.090Z,58.48
2019-04-22T12:07:23.845Z,58.42
2019-04-22T12:09:17.585Z,57.97
2019-04-22T12:10:27.223Z,58.35
2019-04-22T12:12:11.814Z,57.77
2019-04-22T12:13:10.326Z,58.32
2019-04-22T12:15:04.137Z,58.03
2019-04-22T12:16:03.286Z,58.03
2019-04-22T12:17:57.287Z,58.89
2019-04-22T12:18:55.560Z,58.99
2019-04-22T12:20:48.343Z,59.22
2019-04-22T12:21:49.141Z,59.02
2019-04-22T12:23:41.308Z,58.45
2019-04-22T12:24:42.465Z,58.54
2019-04-22T12:26:34.545Z,58.03
2019-04-22T12:27:35.057Z,58.32
2019-04-22T12:29:26.947Z,58.22
2019-04-22T12:30:27.783Z,58.32
2019-04-22T12:32:19.252Z,58.70
2019-04-22T12:33:19.327Z,58.54
2019-04-22T12:35:13.536Z,58.15
2019-04-22T12:36:12.797Z,57.77
2019-04-22T12:38:08.430Z,57.87
2019-04-22T12:39:05.187Z,57.68
2019-04-22T12:41:02.762Z,57.97
2019-04-22T12:41:58.354Z,57.77
2019-04-22T12:43:51.397Z,57.48
2019-04-22T12:44:51.176Z,57.70
2019-04-22T12:46:43.935Z,57.60
2019-04-22T12:47:44.149Z,56.93
2019-04-22T12:49:40.142Z,56.93
2019-04-22T12:50:40.251Z,57.22
2019-04-22T12:52:37.357Z,57.00
2019-04-22T12:53:29.760Z,56.43
2019-04-22T12:55:21.864Z,57.39
2019-04-22T12:56:21.770Z,56.91
2019-04-22T12:58:13.956Z,57.00
2019-04-22T12:59:14.064Z,56.23
2019-04-22T13:01:06.880Z,57.00
2019-04-22T13:02:07.182Z,56.62
2019-04-22T13:04:05.721Z,56.91
2019-04-22T13:05:00.635Z,56.52
2019-04-22T13:06:53.467Z,56.91
2019-04-22T13:07:51.986Z,56.33
2019-04-22T13:09:45.382Z,56.45
2019-04-22T13:10:53.342Z,56.26
2019-04-22T13:12:37.482Z,55.49
2019-04-22T13:13:38.672Z,55.49
2019-04-22T13:15:30.825Z,57.00
2019-04-22T13:16:31.267Z,57.39
2019-04-22T13:18:31.874Z,57.68
2019-04-22T13:19:24.895Z,57.77
2019-04-22T13:21:15.623Z,57.68
2019-04-22T13:22:16.938Z,57.58
2019-04-22T13:24:09.121Z,57.00
2019-04-22T13:25:08.257Z,57.29
2019-04-22T13:27:01.295Z,57.10
2019-04-22T13:28:01.059Z,57.00
2019-04-22T13:29:55.074Z,56.07
2019-04-22T13:30:54.808Z,54.89
2019-04-22T13:32:47.143Z,55.08
2019-04-22T13:33:46.969Z,54.79
2019-04-22T13:35:39.481Z,54.86
2019-04-22T13:36:41.749Z,54.99
2019-04-22T13:38:33.144Z,55.37
2019-04-22T13:39:31.830Z,55.46
2019-04-22T13:41:35.468Z,55.56
2019-04-22T13:42:25.455Z,56.04
2019-04-22T13:44:18.854Z,56.43
2019-04-22T13:45:17.910Z,56.52
2019-04-22T13:47:28.424Z,56.23
2019-04-22T13:48:28.770Z,56.91
2019-04-22T13:50:32.622Z,56.71
2019-04-22T13:53:37.718Z,56.74
2019-04-22T13:56:13.892Z,56.62
2019-04-22T13:57:03.369Z,57.39
2019-04-22T13:58:53.087Z,57.68
2019-04-22T13:59:46.331Z,57.48
2019-04-22T14:01:34.712Z,57.68
2019-04-22T14:02:34.754Z,56.91
2019-04-22T14:04:26.388Z,57.58
2019-04-22T14:05:26.916Z,57.65
2019-04-22T14:07:19.102Z,57.29
2019-04-22T14:08:19.919Z,56.98
2019-04-22T14:10:12.156Z,56.33
2019-04-22T14:11:23.335Z,56.04
2019-04-22T14:13:05.729Z,54.99
2019-04-22T14:14:05.099Z,54.79
2019-04-22T14:15:57.286Z,54.09
2019-04-22T14:16:58.669Z,54.77
2019-04-22T14:18:50.026Z,54.57
2019-04-22T14:19:50.821Z,54.09
2019-04-22T14:21:45.852Z,53.64
2019-04-22T14:22:42.658Z,53.06
2019-04-22T14:24:36.433Z,52.87
2019-04-22T14:25:36.655Z,53.13
2019-04-22T14:27:41.801Z,53.90
2019-04-22T14:28:29.253Z,54.47
2019-04-22T14:30:20.974Z,55.53
2019-04-22T14:31:22.335Z,55.24
2019-04-22T14:33:14.053Z,55.63
2019-04-22T14:34:15.135Z,55.15
2019-04-22T14:36:07.445Z,55.63
2019-04-22T14:37:06.259Z,54.47
2019-04-22T14:38:59.765Z,54.09
2019-04-22T14:40:00.245Z,54.28
2019-04-22T14:42:12.069Z,53.03
2019-04-22T14:43:17.612Z,52.84
2019-04-22T14:45:18.830Z,53.78
2019-04-22T14:47:59.434Z,53.61
2019-04-22T14:48:58.974Z,53.32
2019-04-22T14:50:54.606Z,53.80
2019-04-22T14:51:49.901Z,53.70
2019-04-22T14:53:41.439Z,52.72
2019-04-22T14:54:37.667Z,52.55
2019-04-22T14:56:16.127Z,52.84
2019-04-22T14:57:15.264Z,51.95
2019-04-22T14:59:09.276Z,52.17
2019-04-22T15:00:08.124Z,52.14
2019-04-22T15:02:01.438Z,52.24
2019-04-22T15:03:01.566Z,51.95
2019-04-22T15:04:54.235Z,52.14
2019-04-22T15:05:54.483Z,51.67
2019-04-22T15:07:46.173Z,51.67
2019-04-22T15:08:46.988Z,52.05
2019-04-22T15:10:39.912Z,50.90
2019-04-22T15:11:52.813Z,50.90
2019-04-22T15:13:31.694Z,51.69
2019-04-22T15:14:31.545Z,51.88
2019-04-22T15:16:25.660Z,51.86
2019-04-22T15:17:24.962Z,51.95
2019-04-22T15:19:17.892Z,52.02
2019-04-22T15:20:17.047Z,51.64
2019-04-22T15:22:10.460Z,52.22
2019-04-22T15:23:10.838Z,52.43
2019-04-22T15:25:02.959Z,52.24
2019-04-22T15:26:02.444Z,52.43
2019-04-22T15:27:55.332Z,52.43
2019-04-22T15:28:55.474Z,52.40
2019-04-22T15:30:48.057Z,53.36
2019-04-22T15:31:49.184Z,53.27
2019-04-22T15:33:41.666Z,53.08
2019-04-22T15:34:41.569Z,53.36
2019-04-22T15:36:33.448Z,54.33
2019-04-22T15:37:33.403Z,54.13
2019-04-22T15:39:27.308Z,54.13
2019-04-22T15:40:26.810Z,53.94
2019-04-22T15:42:27.640Z,54.71
2019-04-22T15:43:20.406Z,54.71
2019-04-22T15:45:14.368Z,55.57
2019-04-22T15:46:11.772Z,55.45
2019-04-22T15:48:04.395Z,56.05
2019-04-22T15:49:04.347Z,55.96
2019-04-22T15:50:58.367Z,56.15
2019-04-22T15:51:59.394Z,55.96
2019-04-22T15:53:49.794Z,55.93
2019-04-22T15:54:51.801Z,55.86
2019-04-22T15:56:42.557Z,56.05
2019-04-22T15:57:43.804Z,56.15
2019-04-22T15:59:47.695Z,56.44
2019-04-22T16:00:45.908Z,56.44
2019-04-22T16:02:27.956Z,57.01
2019-04-22T16:03:29.020Z,57.01
2019-04-22T16:05:20.643Z,56.92
2019-04-22T16:06:21.937Z,56.92
2019-04-22T16:08:14.858Z,57.11
2019-04-22T16:09:13.305Z,56.82
2019-04-22T16:11:06.230Z,56.70
2019-04-22T16:12:16.314Z,57.37
2019-04-22T16:14:00.086Z,57.40
2019-04-22T16:14:59.674Z,57.21
2019-04-22T16:16:52.547Z,57.40
2019-04-22T16:17:52.935Z,56.92
2019-04-22T16:19:45.171Z,56.08
2019-04-22T16:20:44.095Z,56.27
2019-04-22T16:22:36.995Z,55.10
2019-04-22T16:23:38.140Z,54.80
2019-04-22T16:25:29.580Z,54.80
2019-04-22T16:26:30.533Z,55.29
2019-04-22T16:28:22.374Z,55.38
2019-04-22T16:29:23.329Z,55.26
2019-04-22T16:31:15.497Z,55.45
2019-04-22T16:32:15.633Z,55.86
2019-04-22T16:34:09.359Z,55.83
2019-04-22T16:35:08.739Z,55.93
2019-04-22T16:37:00.836Z,56.12
2019-04-22T16:38:01.040Z,56.41
2019-04-22T16:39:54.621Z,56.34
2019-04-22T16:40:54.591Z,56.51
2019-04-22T16:42:54.582Z,56.89
2019-04-22T16:43:46.673Z,57.37
2019-04-22T16:45:39.880Z,57.50
2019-04-22T16:46:39.363Z,57.85
2019-04-22T16:48:31.556Z,58.33
2019-04-22T16:49:32.073Z,57.85
2019-04-22T16:51:24.475Z,58.23
2019-04-22T16:52:23.935Z,58.33
2019-04-22T16:54:17.960Z,58.33
2019-04-22T16:55:17.010Z,58.52
2019-04-22T16:57:10.164Z,58.52
2019-04-22T16:58:10.524Z,59.00
2019-04-22T17:00:02.901Z,59.19
2019-04-22T17:01:02.948Z,58.91
2019-04-22T17:02:56.123Z,59.48
2019-04-22T17:03:54.787Z,59.67
2019-04-22T17:05:47.596Z,59.19
2019-04-22T17:06:47.880Z,59.19
2019-04-22T17:08:40.250Z,59.86
2019-04-22T17:09:41.603Z,59.86
2019-04-22T17:11:34.002Z,59.16
2019-04-22T17:12:45.728Z,59.77
2019-04-22T17:14:35.141Z,60.22
2019-04-22T17:15:26.923Z,60.22
2019-04-22T17:17:18.415Z,60.03
2019-04-22T17:18:19.183Z,60.03
2019-04-22T17:20:11.362Z,59.83
2019-04-22T17:21:12.410Z,60.50
2019-04-22T17:23:05.334Z,60.89
2019-04-22T17:24:03.785Z,60.41
2019-04-22T17:25:56.633Z,60.99
2019-04-22T17:26:56.671Z,61.46
2019-04-22T17:28:49.423Z,61.56
2019-04-22T17:29:50.462Z,61.56
2019-04-22T17:31:48.431Z,62.13
2019-04-22T17:32:44.825Z,62.81
2019-04-22T17:34:35.939Z,62.23
2019-04-22T17:35:35.915Z,62.42
2019-04-22T17:37:31.480Z,62.87
2019-04-22T17:38:38.800Z,62.62
2019-04-22T17:40:38.839Z,63.00
2019-04-22T17:41:33.948Z,63.26
2019-04-22T17:43:44.166Z,62.87
2019-04-22T17:44:39.957Z,62.77
2019-04-22T17:46:24.810Z,62.96
2019-04-22T17:47:23.619Z,63.26
2019-04-22T17:49:25.566Z,63.45
2019-04-22T17:50:24.902Z,63.26
2019-04-22T17:52:10.680Z,62.77
2019-04-22T17:53:22.951Z,63.45
2019-04-22T17:54:57.230Z,64.02
2019-04-22T17:56:10.598Z,64.12
2019-04-22T17:58:05.646Z,63.80
2019-04-22T17:58:57.403Z,64.09
2019-04-22T18:00:47.286Z,64.66
2019-04-22T18:01:38.276Z,64.95
2019-04-22T18:03:31.078Z,65.42
2019-04-22T18:04:21.544Z,64.76
2019-04-22T18:06:45.311Z,65.14
2019-04-22T18:07:49.321Z,65.71
2019-04-22T18:09:50.240Z,66.19
2019-04-22T18:10:56.065Z,65.81
2019-04-22T18:12:25.759Z,66.48
2019-04-22T18:13:28.255Z,66.48
2019-04-22T18:15:14.664Z,66.67
2019-04-22T18:16:12.916Z,66.96
2019-04-22T18:18:12.983Z,67.15
2019-04-22T18:19:08.992Z,67.44
2019-04-22T18:20:52.135Z,67.88
2019-04-22T18:21:53.440Z,68.36
2019-04-22T18:23:41.585Z,68.36
2019-04-22T18:24:49.330Z,68.65
2019-04-22T18:26:43.642Z,68.27
2019-04-22T18:27:55.303Z,68.27
2019-04-22T18:29:34.468Z,68.46
2019-04-22T18:30:28.766Z,68.84
2019-04-22T18:32:20.410Z,68.94
2019-04-22T18:33:28.694Z,68.84
2019-04-22T18:35:20.432Z,69.60
2019-04-22T18:36:19.642Z,69.23
2019-04-22T18:38:27.998Z,69.70
2019-04-22T18:39:21.295Z,70.18
2019-04-22T18:41:08.067Z,70.09
2019-04-22T18:42:03.660Z,70.18
2019-04-22T18:43:58.783Z,70.28
2019-04-22T18:45:21.622Z,70.62
2019-04-22T18:46:54.985Z,70.72
2019-04-22T18:47:45.622Z,70.53
2019-04-22T18:49:45.428Z,70.53
2019-04-22T18:50:52.472Z,71.39
2019-04-22T18:52:42.740Z,71.48
2019-04-22T18:53:44.713Z,71.30
2019-04-22T18:55:26.777Z,72.16
2019-04-22T18:56:40.430Z,72.44
2019-04-22T18:58:18.786Z,72.44
2019-04-22T18:59:12.398Z,72.34
2019-04-22T19:00:55.678Z,72.54
2019-04-22T19:02:01.458Z,72.63
2019-04-22T19:03:58.206Z,73.30
2019-04-22T19:04:56.168Z,72.63
2019-04-22T19:07:01.778Z,73.02
2019-04-22T19:08:07.144Z,72.92
2019-04-22T19:10:07.960Z,73.46
2019-04-22T19:11:02.593Z,73.55
2019-04-22T19:12:52.396Z,74.13
2019-04-22T19:15:45.522Z,74.41
2019-04-22T19:16:40.051Z,74.22
2019-04-22T19:18:35.046Z,74.80
2019-04-22T19:21:44.467Z,74.80
2019-04-22T19:22:29.947Z,75.27
2019-04-22T19:24:15.061Z,75.18
2019-04-22T19:25:11.700Z,74.99
2019-04-22T19:27:09.268Z,75.47
2019-04-22T19:28:17.803Z,75.27
2019-04-22T19:30:04.024Z,75.27
2019-04-22T19:31:09.279Z,76.33
2019-04-22T19:33:02.770Z,75.37
2019-04-22T19:33:59.082Z,75.62
2019-04-22T19:35:44.074Z,76.20
2019-04-22T19:36:51.809Z,75.76
2019-04-22T19:38:32.316Z,75.66
2019-04-22T19:39:45.670Z,75.91
2019-04-22T19:41:38.914Z,76.00
2019-04-22T19:44:26.018Z,76.29
2019-04-22T19:45:30.964Z,76.10
2019-04-22T19:47:39.666Z,77.25
2019-04-22T19:48:27.203Z,77.15
2019-04-22T19:50:16.281Z,76.96
2019-04-22T19:51:15.759Z,76.77
2019-04-22T19:53:14.340Z,76.77
2019-04-22T19:54:01.442Z,77.06
2019-04-22T19:55:54.085Z,77.44
2019-04-22T19:56:50.747Z,77.15
2019-04-22T19:58:44.424Z,77.44
2019-04-22T19:59:45.496Z,77.44
2019-04-22T20:01:46.242Z,77.63
2019-04-22T20:02:42.664Z,77.82
2019-04-22T20:04:41.349Z,77.82
2019-04-22T20:05:37.516Z,77.92
2019-04-22T20:07:28.187Z,78.58
2019-04-22T20:08:26.309Z,78.39
2019-04-22T20:10:20.548Z,78.30
2019-04-22T20:11:22.672Z,78.20
2019-04-22T20:13:22.505Z,78.68
2019-04-22T20:14:12.623Z,78.68
2019-04-22T20:15:56.133Z,78.49
2019-04-22T20:17:00.664Z,78.78
2019-04-22T20:19:06.910Z,78.68
2019-04-22T20:20:06.371Z,78.97
2019-04-22T20:21:51.670Z,79.16
2019-04-22T20:22:50.627Z,79.54
2019-04-22T20:24:28.368Z,79.64
2019-04-22T20:25:42.171Z,79.64
2019-04-22T20:27:39.206Z,79.64
2019-04-22T20:28:37.161Z,79.83
2019-04-22T20:30:29.564Z,79.44
2019-04-22T20:31:30.118Z,79.54
2019-04-22T20:33:29.482Z,79.73